Time;durP1;ratioP1;P1;durP2;ratioP2;P2;SDS_P1;SDS_P2;PMS_P1;PMS_P2;Temp;Humidity;BMP_temperature;BMP_pressure;BME280_temperature;BME280_humidity;BME280_pressure;Samples;Min_cycle;Max_cycle;Signal;HPM_P1;HPM_P2
2023/03/27 00:00:42;;;;;;;;;;;1.50;99.90;;;;;;5087086;28;19928;-78
2023/03/27 00:03:08;;;;;;;;;;;1.60;99.90;;;;;;5104828;28;20002;-78
2023/03/27 00:05:34;;;;;;;;;;;1.50;99.90;;;;;;5086288;28;19924;-78
2023/03/27 00:08:00;;;;;;;;;;;1.50;99.90;;;;;;5087015;28;19931;-78
2023/03/27 00:10:27;;;;;;;;;;;1.40;99.90;;;;;;5088359;28;19924;-78
2023/03/27 00:12:53;;;;;;;;;;;1.40;99.90;;;;;;5086003;28;19935;-78
2023/03/27 00:15:18;;;;;;;;;;;1.30;99.90;;;;;;5071368;27;19928;-78
2023/03/27 00:17:49;;;;;;;;;;;1.40;99.90;;;;;;5079531;28;19978;-78
2023/03/27 00:20:15;;;;;;;;;;;1.40;99.90;;;;;;5076468;27;19970;-78
2023/03/27 00:22:41;;;;;;;;;;;1.40;99.90;;;;;;5117958;28;19924;-78
2023/03/27 00:25:07;;;;;;;;;;;1.40;99.90;;;;;;5084909;27;20003;-78
2023/03/27 00:27:33;;;;;;;;;;;1.30;99.90;;;;;;5085983;28;19924;-78
2023/03/27 00:29:59;;;;;;;;;;;1.30;99.90;;;;;;5086372;27;19950;-78
2023/03/27 00:32:24;;;;;;;;;;;1.30;99.90;;;;;;5100696;27;19967;-78
2023/03/27 00:34:50;;;;;;;;;;;1.30;99.90;;;;;;5065535;28;21914;-78
2023/03/27 00:37:15;;;;;;;;;;;1.20;99.90;;;;;;5083290;28;19962;-78
2023/03/27 00:39:41;;;;;;;;;;;1.20;99.90;;;;;;5075264;28;19927;-78
2023/03/27 00:42:13;;;;;;;;;;;1.20;99.90;;;;;;5085113;28;19924;-78
2023/03/27 00:44:41;;;;;;;;;;;1.20;99.90;;;;;;5108133;27;19971;-78
2023/03/27 00:47:09;;;;;;;;;;;1.20;99.90;;;;;;5088056;28;19967;-78
2023/03/27 00:49:35;;;;;;;;;;;1.20;99.90;;;;;;5065414;28;19993;-78
2023/03/27 00:52:02;;;;;;;;;;;1.30;99.90;;;;;;5108751;28;19935;-78
2023/03/27 00:54:30;;;;;;;;;;;1.40;99.90;;;;;;5082724;28;19989;-78
2023/03/27 00:56:59;;;;;;;;;;;1.40;99.90;;;;;;5081590;27;19931;-78
2023/03/27 00:59:26;;;;;;;;;;;1.50;99.90;;;;;;5086289;28;19923;-78
2023/03/27 01:01:52;;;;;;;;;;;1.50;99.90;;;;;;5081817;27;19935;-78
2023/03/27 01:04:20;;;;;;;;;;;1.50;99.90;;;;;;5069679;27;19927;-78
2023/03/27 01:06:46;;;;;;;;;;;1.50;99.90;;;;;;5065811;28;20047;-79
2023/03/27 01:09:12;;;;;;;;;;;1.50;99.90;;;;;;5076578;28;19932;-78
2023/03/27 01:11:57;;;;;;;;;;;1.40;99.90;;;;;;5115612;28;19942;-78
2023/03/27 01:14:23;;;;;;;;;;;1.40;99.90;;;;;;5078094;28;19923;-78
2023/03/27 01:17:07;;;;;;;;;;;1.30;99.90;;;;;;5101372;28;19931;-78
2023/03/27 01:19:52;;;;;;;;;;;1.30;99.90;;;;;;5078796;28;19923;-78
2023/03/27 01:22:24;;;;;;;;;;;1.30;99.90;;;;;;5113777;28;20009;-78
2023/03/27 01:24:49;;;;;;;;;;;1.20;99.90;;;;;;5082422;28;19928;-78
2023/03/27 01:27:21;;;;;;;;;;;1.20;99.90;;;;;;5085872;28;19923;-78
2023/03/27 01:29:52;;;;;;;;;;;1.10;99.90;;;;;;5103884;28;19923;-78
2023/03/27 01:32:24;;;;;;;;;;;1.10;99.90;;;;;;5104263;27;19927;-78
2023/03/27 01:34:53;;;;;;;;;;;1.10;99.90;;;;;;5092129;28;20302;-78
2023/03/27 01:37:37;;;;;;;;;;;1.10;99.90;;;;;;5083177;28;19923;-78
2023/03/27 01:40:06;;;;;;;;;;;1.10;99.90;;;;;;5104060;28;19928;-78
2023/03/27 01:42:40;;;;;;;;;;;1.10;99.90;;;;;;5084824;28;19938;-78
2023/03/27 01:45:06;;;;;;;;;;;1.10;99.90;;;;;;5084934;28;20365;-78
2023/03/27 01:47:38;;;;;;;;;;;1.20;99.90;;;;;;5085043;28;19957;-78
2023/03/27 01:50:06;;;;;;;;;;;1.10;99.90;;;;;;5084564;28;19991;-78
2023/03/27 01:52:32;;;;;;;;;;;1.10;99.90;;;;;;5119807;27;19938;-78
2023/03/27 01:55:02;;;;;;;;;;;1.10;99.90;;;;;;5100732;28;19923;-78
2023/03/27 01:57:33;;;;;;;;;;;1.00;99.90;;;;;;5084307;28;19924;-78
2023/03/27 02:00:16;;;;;;;;;;;1.00;99.90;;;;;;5101624;28;19974;-78
2023/03/27 02:02:47;;;;;;;;;;;0.90;99.90;;;;;;5101603;28;20495;-78
2023/03/27 02:05:19;;;;;;;;;;;0.90;99.90;;;;;;5113246;27;19923;-78
2023/03/27 02:07:51;;;;;;;;;;;0.90;99.90;;;;;;5089425;28;19924;-78
2023/03/27 02:10:20;;;;;;;;;;;0.90;99.90;;;;;;5073484;27;20387;-78
2023/03/27 02:12:49;;;;;;;;;;;0.90;99.90;;;;;;5069154;28;20020;-78
2023/03/27 02:15:17;;;;;;;;;;;0.90;99.90;;;;;;5097467;28;19923;-78
2023/03/27 02:17:46;;;;;;;;;;;1.00;99.90;;;;;;5126867;27;19924;-78
2023/03/27 02:20:14;;;;;;;;;;;0.90;99.90;;;;;;5110136;28;19934;-78
2023/03/27 02:22:47;;;;;;;;;;;1.00;99.90;;;;;;5096665;28;19969;-78
2023/03/27 02:25:20;;;;;;;;;;;1.00;99.90;;;;;;5071792;28;19931;-78
2023/03/27 02:27:47;;;;;;;;;;;1.10;99.90;;;;;;5070768;28;19949;-78
2023/03/27 02:30:12;;;;;;;;;;;1.00;99.90;;;;;;5079261;28;19934;-78
2023/03/27 02:32:38;;;;;;;;;;;1.10;99.90;;;;;;5083987;28;19927;-78
2023/03/27 02:35:14;;;;;;;;;;;1.10;99.90;;;;;;5100970;27;19928;-78
2023/03/27 02:37:48;;;;;;;;;;;1.20;99.90;;;;;;5118978;27;19963;-78
2023/03/27 02:40:27;;;;;;;;;;;1.10;99.90;;;;;;5079992;28;19924;-78
2023/03/27 02:43:06;;;;;;;;;;;1.20;99.90;;;;;;5123423;27;19924;-78
2023/03/27 02:45:50;;;;;;;;;;;1.10;99.90;;;;;;5083115;28;19983;-79
2023/03/27 02:48:18;;;;;;;;;;;1.20;99.90;;;;;;5116206;28;19930;-78
2023/03/27 02:50:51;;;;;;;;;;;1.10;99.90;;;;;;5078907;27;19969;-78
2023/03/27 02:53:18;;;;;;;;;;;1.20;99.90;;;;;;5076491;28;20015;-78
2023/03/27 02:55:49;;;;;;;;;;;1.20;99.90;;;;;;5088745;28;20398;-78
2023/03/27 02:58:18;;;;;;;;;;;1.30;99.90;;;;;;5085306;28;19927;-77
2023/03/27 03:00:47;;;;;;;;;;;1.40;99.90;;;;;;5105847;28;19923;-78
2023/03/27 03:03:20;;;;;;;;;;;1.50;99.90;;;;;;5105116;28;19930;-78
2023/03/27 03:05:46;;;;;;;;;;;1.60;99.90;;;;;;5086823;28;19987;-78
2023/03/27 03:08:13;;;;;;;;;;;1.70;99.90;;;;;;5081132;27;19931;-78
2023/03/27 03:10:43;;;;;;;;;;;1.80;99.90;;;;;;5087172;27;20350;-78
2023/03/27 03:13:09;;;;;;;;;;;1.80;99.90;;;;;;5095199;27;19924;-77
2023/03/27 03:15:35;;;;;;;;;;;1.80;99.90;;;;;;5088187;28;19992;-77
2023/03/27 03:18:01;;;;;;;;;;;1.80;99.90;;;;;;5100254;27;19945;-77
2023/03/27 03:20:28;;;;;;;;;;;1.80;99.90;;;;;;5083954;27;19923;-77
2023/03/27 03:22:55;;;;;;;;;;;1.80;99.90;;;;;;5071443;28;19924;-78
2023/03/27 03:25:20;;;;;;;;;;;1.80;99.90;;;;;;5088700;28;19989;-77
2023/03/27 03:27:46;;;;;;;;;;;1.80;99.90;;;;;;5088422;28;19935;-78
2023/03/27 03:30:12;;;;;;;;;;;1.70;99.90;;;;;;5092849;27;19927;-77
2023/03/27 03:32:38;;;;;;;;;;;1.80;99.90;;;;;;5091411;27;19928;-78
2023/03/27 03:35:04;;;;;;;;;;;1.80;99.90;;;;;;5111891;28;19978;-77
2023/03/27 03:37:37;;;;;;;;;;;1.80;99.90;;;;;;5104472;27;19927;-77
2023/03/27 03:40:10;;;;;;;;;;;1.80;99.90;;;;;;5094291;27;19934;-77
2023/03/27 03:42:36;;;;;;;;;;;1.90;99.90;;;;;;5089949;27;19934;-77
2023/03/27 03:45:02;;;;;;;;;;;2.00;99.90;;;;;;5070446;27;19935;-78
2023/03/27 03:47:28;;;;;;;;;;;2.00;99.90;;;;;;5111679;27;19924;-77
2023/03/27 03:49:54;;;;;;;;;;;2.10;99.90;;;;;;5087622;27;19983;-78
2023/03/27 03:52:20;;;;;;;;;;;2.10;99.90;;;;;;5076382;28;19950;-78
2023/03/27 03:54:45;;;;;;;;;;;2.10;99.90;;;;;;5090045;28;19923;-78
2023/03/27 03:57:11;;;;;;;;;;;2.10;99.90;;;;;;5072137;28;19928;-78
2023/03/27 03:59:38;;;;;;;;;;;2.10;99.90;;;;;;5068688;28;19931;-79
2023/03/27 04:02:03;;;;;;;;;;;2.10;99.90;;;;;;5078138;28;19924;-78
2023/03/27 04:04:29;;;;;;;;;;;2.00;99.90;;;;;;5080812;27;19932;-78
2023/03/27 04:06:57;;;;;;;;;;;2.00;99.90;;;;;;5071157;27;19938;-78
2023/03/27 04:09:22;;;;;;;;;;;2.00;99.90;;;;;;5088263;28;19946;-79
2023/03/27 04:11:48;;;;;;;;;;;1.90;99.90;;;;;;5105041;28;19928;-78
2023/03/27 04:14:13;;;;;;;;;;;1.80;99.90;;;;;;5105720;28;19931;-79
2023/03/27 04:16:39;;;;;;;;;;;1.80;99.90;;;;;;5087991;27;19991;-78
2023/03/27 04:19:05;;;;;;;;;;;1.70;99.90;;;;;;5080886;27;20390;-78
2023/03/27 04:21:31;;;;;;;;;;;1.80;99.90;;;;;;5087630;28;19927;-78
2023/03/27 04:24:01;;;;;;;;;;;1.70;99.90;;;;;;5086523;28;19946;-78
2023/03/27 04:26:26;;;;;;;;;;;1.60;99.90;;;;;;5070060;28;19924;-78
2023/03/27 04:28:53;;;;;;;;;;;1.60;99.90;;;;;;5081717;28;19931;-78
2023/03/27 04:31:18;;;;;;;;;;;1.50;99.90;;;;;;5110467;28;19923;-79
2023/03/27 04:33:45;;;;;;;;;;;1.50;99.90;;;;;;5102940;28;19924;-79
2023/03/27 04:36:13;;;;;;;;;;;1.50;99.90;;;;;;5086323;28;19949;-78
2023/03/27 04:38:39;;;;;;;;;;;1.40;99.90;;;;;;5096123;27;20122;-78
2023/03/27 04:41:05;;;;;;;;;;;1.40;99.90;;;;;;5076773;28;19931;-78
2023/03/27 04:43:31;;;;;;;;;;;1.30;99.90;;;;;;5105203;28;19924;-79
2023/03/27 04:45:56;;;;;;;;;;;1.30;99.90;;;;;;5086300;27;19924;-78
2023/03/27 04:48:22;;;;;;;;;;;1.30;99.90;;;;;;5089847;28;19981;-78
2023/03/27 04:50:48;;;;;;;;;;;1.30;99.90;;;;;;5078806;28;19931;-78
2023/03/27 04:53:15;;;;;;;;;;;1.30;99.90;;;;;;5085439;28;19924;-78
2023/03/27 04:55:41;;;;;;;;;;;1.40;99.90;;;;;;5099833;27;20202;-78
2023/03/27 04:58:07;;;;;;;;;;;1.40;99.90;;;;;;5084776;27;19978;-78
2023/03/27 05:00:33;;;;;;;;;;;1.30;99.90;;;;;;5091311;28;19924;-78
2023/03/27 05:02:59;;;;;;;;;;;1.30;99.90;;;;;;5098895;28;19924;-78
2023/03/27 05:05:26;;;;;;;;;;;1.30;99.90;;;;;;5101715;28;20011;-78
2023/03/27 05:07:51;;;;;;;;;;;1.30;99.90;;;;;;5104407;27;19924;-78
2023/03/27 05:10:17;;;;;;;;;;;1.20;99.90;;;;;;5073435;27;19923;-78
2023/03/27 05:12:43;;;;;;;;;;;1.20;99.90;;;;;;5095766;28;19924;-78
2023/03/27 05:15:09;;;;;;;;;;;1.20;99.90;;;;;;5066543;28;19934;-79
2023/03/27 05:17:45;;;;;;;;;;;1.20;99.90;;;;;;5100867;28;19924;-79
2023/03/27 05:20:13;;;;;;;;;;;1.20;99.90;;;;;;5089353;27;19973;-79
2023/03/27 05:22:39;;;;;;;;;;;1.20;99.90;;;;;;5095227;28;19975;-78
2023/03/27 05:25:05;;;;;;;;;;;1.30;99.90;;;;;;5110200;27;19927;-78
2023/03/27 05:27:31;;;;;;;;;;;1.20;99.90;;;;;;5073847;28;19930;-78
2023/03/27 05:29:57;;;;;;;;;;;1.20;99.90;;;;;;5102747;28;19924;-78
2023/03/27 05:32:22;;;;;;;;;;;1.20;99.90;;;;;;5110857;28;20393;-78
2023/03/27 05:34:53;;;;;;;;;;;1.20;99.90;;;;;;5096309;28;19936;-78
2023/03/27 05:37:19;;;;;;;;;;;1.20;99.90;;;;;;5104141;28;19995;-78
2023/03/27 05:39:45;;;;;;;;;;;1.10;99.90;;;;;;5108025;28;20429;-78
2023/03/27 05:42:12;;;;;;;;;;;1.10;99.90;;;;;;5084936;28;19945;-78
2023/03/27 05:44:38;;;;;;;;;;;1.20;99.90;;;;;;5103490;27;19968;-78
2023/03/27 05:47:04;;;;;;;;;;;1.20;99.90;;;;;;5112192;28;19989;-78
2023/03/27 05:49:30;;;;;;;;;;;1.30;99.90;;;;;;5084664;28;19927;-78
2023/03/27 05:51:57;;;;;;;;;;;1.30;99.90;;;;;;5065553;28;19935;-78
2023/03/27 05:54:22;;;;;;;;;;;1.30;99.90;;;;;;5088543;27;19949;-78
2023/03/27 05:56:48;;;;;;;;;;;1.40;99.90;;;;;;5080838;28;19924;-78
2023/03/27 05:59:14;;;;;;;;;;;1.50;99.90;;;;;;5099703;28;19928;-78
2023/03/27 06:01:39;;;;;;;;;;;1.50;99.90;;;;;;5097893;28;20353;-78
2023/03/27 06:04:07;;;;;;;;;;;1.50;99.90;;;;;;5080917;28;20014;-78
2023/03/27 06:06:33;;;;;;;;;;;1.60;99.90;;;;;;5100569;28;19924;-78
2023/03/27 06:08:59;;;;;;;;;;;1.70;99.90;;;;;;5064854;28;19980;-79
2023/03/27 06:11:24;;;;;;;;;;;1.90;99.90;;;;;;5108193;28;20011;-78
2023/03/27 06:13:50;;;;;;;;;;;2.00;99.90;;;;;;5071498;28;19924;-78
2023/03/27 06:16:19;;;;;;;;;;;2.10;99.90;;;;;;5084379;28;19931;-78
2023/03/27 06:18:45;;;;;;;;;;;2.30;99.90;;;;;;5098014;28;20014;-78
2023/03/27 06:21:11;;;;;;;;;;;2.30;99.90;;;;;;5081284;28;19939;-79
2023/03/27 06:23:37;;;;;;;;;;;2.40;99.90;;;;;;5108531;28;20390;-79
2023/03/27 06:26:03;;;;;;;;;;;2.50;99.90;;;;;;5061130;28;19986;-78
2023/03/27 06:28:28;;;;;;;;;;;2.50;99.90;;;;;;5073722;28;19924;-78
2023/03/27 06:30:56;;;;;;;;;;;2.60;99.90;;;;;;5080835;28;19924;-79
2023/03/27 06:33:24;;;;;;;;;;;2.60;99.90;;;;;;5077241;28;19936;-79
2023/03/27 06:35:50;;;;;;;;;;;2.70;99.90;;;;;;5075512;28;19932;-78
2023/03/27 06:38:17;;;;;;;;;;;2.70;99.90;;;;;;5065881;28;19924;-79
2023/03/27 06:40:43;;;;;;;;;;;2.80;99.90;;;;;;5073414;28;20024;-79
2023/03/27 06:43:09;;;;;;;;;;;3.00;99.90;;;;;;5102736;28;19968;-79
2023/03/27 06:45:45;;;;;;;;;;;3.10;99.90;;;;;;5082680;28;19932;-79
2023/03/27 06:48:11;;;;;;;;;;;3.20;99.90;;;;;;5069935;28;19924;-80
2023/03/27 06:50:37;;;;;;;;;;;3.30;99.90;;;;;;5064936;28;19932;-80
2023/03/27 06:53:03;;;;;;;;;;;3.30;99.90;;;;;;5110105;28;20487;-79
2023/03/27 06:55:30;;;;;;;;;;;3.30;99.90;;;;;;5063790;28;19940;-79
2023/03/27 06:57:56;;;;;;;;;;;3.30;99.90;;;;;;5117777;28;19924;-80
2023/03/27 07:00:24;;;;;;;;;;;3.20;99.90;;;;;;5065870;28;19924;-79
2023/03/27 07:02:57;;;;;;;;;;;3.20;99.90;;;;;;5114688;28;19936;-79
2023/03/27 07:05:24;;;;;;;;;;;3.10;99.90;;;;;;5092822;28;19951;-80
2023/03/27 07:07:49;;;;;;;;;;;3.00;99.90;;;;;;5058639;28;19932;-79
2023/03/27 07:10:15;;;;;;;;;;;3.00;99.90;;;;;;5060282;28;20009;-79
2023/03/27 07:12:45;;;;;;;;;;;3.00;99.90;;;;;;5077631;28;19924;-79
2023/03/27 07:15:10;;;;;;;;;;;3.10;99.90;;;;;;5084742;28;19999;-79
2023/03/27 07:17:36;;;;;;;;;;;3.20;99.90;;;;;;5094031;28;19924;-80
2023/03/27 07:20:04;;;;;;;;;;;3.50;99.90;;;;;;5094070;28;20160;-80
2023/03/27 07:22:30;;;;;;;;;;;3.80;99.90;;;;;;5079232;28;20424;-79
2023/03/27 07:24:56;;;;;;;;;;;4.40;99.90;;;;;;5096594;28;19924;-79
2023/03/27 07:27:22;;;;;;;;;;;5.20;99.90;;;;;;5067856;28;19928;-79
2023/03/27 07:29:48;;;;;;;;;;;6.00;99.90;;;;;;5086803;28;19954;-79
2023/03/27 07:32:13;;;;;;;;;;;6.80;99.90;;;;;;5082681;28;19928;-80
2023/03/27 07:34:40;;;;;;;;;;;7.70;99.90;;;;;;5072160;28;19928;-80
2023/03/27 07:37:05;;;;;;;;;;;8.30;99.90;;;;;;5087549;28;20401;-80
2023/03/27 07:39:31;;;;;;;;;;;8.80;99.90;;;;;;5063555;28;19942;-79
2023/03/27 07:41:56;;;;;;;;;;;9.10;99.90;;;;;;5100464;28;19957;-79
2023/03/27 07:44:22;;;;;;;;;;;9.50;99.90;;;;;;5113108;28;20440;-80
2023/03/27 07:46:50;;;;;;;;;;;9.90;99.90;;;;;;5077013;28;19929;-80
2023/03/27 07:49:16;;;;;;;;;;;10.00;99.00;;;;;;5077706;28;19928;-80
2023/03/27 07:51:43;;;;;;;;;;;10.20;99.90;;;;;;5098217;28;19924;-80
2023/03/27 07:54:12;;;;;;;;;;;10.40;99.90;;;;;;5075988;28;20399;-80
2023/03/27 07:56:38;;;;;;;;;;;10.50;99.90;;;;;;5110466;28;20024;-80
2023/03/27 07:59:04;;;;;;;;;;;10.70;99.90;;;;;;5084195;28;19934;-80
2023/03/27 08:01:29;;;;;;;;;;;10.80;99.90;;;;;;5075905;28;21084;-80
2023/03/27 08:03:56;;;;;;;;;;;10.90;96.60;;;;;;5092035;28;20034;-80
2023/03/27 08:06:22;;;;;;;;;;;11.10;99.90;;;;;;5068322;28;19974;-81
2023/03/27 08:08:49;;;;;;;;;;;11.20;97.50;;;;;;5104042;28;19932;-80
2023/03/27 08:11:15;;;;;;;;;;;11.10;90.80;;;;;;5100483;28;19931;-81
2023/03/27 08:13:41;;;;;;;;;;;11.00;94.00;;;;;;5082139;28;19935;-80
2023/03/27 08:16:06;;;;;;;;;;;10.80;91.00;;;;;;5100616;28;19924;-81
2023/03/27 08:18:32;;;;;;;;;;;10.80;91.10;;;;;;5078113;28;19935;-81
2023/03/27 08:20:59;;;;;;;;;;;10.80;91.00;;;;;;5079150;28;19931;-80
2023/03/27 08:23:26;;;;;;;;;;;10.70;89.60;;;;;;5074124;28;19946;-81
2023/03/27 08:25:52;;;;;;;;;;;10.50;88.70;;;;;;5078866;28;19939;-81
2023/03/27 08:28:17;;;;;;;;;;;10.40;91.40;;;;;;5093408;28;20023;-81
2023/03/27 08:30:43;;;;;;;;;;;10.40;89.90;;;;;;5079634;28;19935;-80
2023/03/27 08:33:09;;;;;;;;;;;10.10;88.10;;;;;;5091092;28;19928;-80
2023/03/27 08:35:35;;;;;;;;;;;10.00;90.40;;;;;;5095526;28;19924;-80
2023/03/27 08:38:00;;;;;;;;;;;10.30;94.20;;;;;;5100165;28;19990;-80
2023/03/27 08:40:27;;;;;;;;;;;10.20;87.50;;;;;;5072005;28;19931;-80
2023/03/27 08:42:55;;;;;;;;;;;9.30;87.00;;;;;;5097034;28;19927;-80
2023/03/27 08:45:25;;;;;;;;;;;8.40;91.40;;;;;;5080845;28;19924;-79
2023/03/27 08:47:53;;;;;;;;;;;7.70;98.40;;;;;;5084745;28;20420;-79
2023/03/27 08:50:41;;;;;;;;;;;7.20;99.90;;;;;;5083838;28;19924;-79
2023/03/27 08:53:13;;;;;;;;;;;6.90;99.90;;;;;;5079896;28;19931;-79
2023/03/27 08:55:42;;;;;;;;;;;7.20;99.90;;;;;;5101043;28;20280;-79
2023/03/27 08:58:15;;;;;;;;;;;7.80;99.90;;;;;;5087753;28;19955;-80
2023/03/27 09:00:41;;;;;;;;;;;8.50;99.90;;;;;;5095282;28;19935;-80
2023/03/27 09:03:07;;;;;;;;;;;9.10;99.90;;;;;;5098626;28;19924;-80
2023/03/27 09:05:39;;;;;;;;;;;9.30;99.90;;;;;;5098393;28;20298;-79
2023/03/27 09:08:11;;;;;;;;;;;9.70;99.90;;;;;;5073833;28;19924;-79
2023/03/27 09:10:55;;;;;;;;;;;9.70;97.90;;;;;;5105898;28;19956;-79
2023/03/27 09:13:24;;;;;;;;;;;10.00;97.10;;;;;;5068485;28;20073;-79
2023/03/27 09:15:59;;;;;;;;;;;10.40;94.60;;;;;;5082560;28;19975;-79
2023/03/27 09:18:47;;;;;;;;;;;9.80;94.90;;;;;;5081506;28;20268;-79
2023/03/27 09:21:16;;;;;;;;;;;9.10;94.80;;;;;;5070931;28;19924;-79
2023/03/27 09:23:44;;;;;;;;;;;8.00;99.90;;;;;;5115858;28;19935;-78
2023/03/27 09:26:11;;;;;;;;;;;7.00;99.90;;;;;;5126979;27;19958;-78
2023/03/27 09:28:44;;;;;;;;;;;6.20;99.90;;;;;;5113440;27;19932;-77
2023/03/27 09:31:19;;;;;;;;;;;5.50;99.90;;;;;;5096255;28;19928;-76
2023/03/27 09:33:44;;;;;;;;;;;5.10;99.90;;;;;;5068195;28;19935;-77
2023/03/27 09:36:10;;;;;;;;;;;4.70;99.90;;;;;;5095718;28;20299;-78
2023/03/27 09:38:38;;;;;;;;;;;4.50;99.90;;;;;;5082434;28;19923;-77
2023/03/27 09:41:07;;;;;;;;;;;4.50;99.90;;;;;;5079396;28;19932;-78
2023/03/27 09:43:51;;;;;;;;;;;4.50;99.90;;;;;;5093163;28;19930;-78
2023/03/27 09:46:18;;;;;;;;;;;5.40;99.90;;;;;;5077181;28;20401;-79
2023/03/27 09:48:49;;;;;;;;;;;6.60;99.90;;;;;;5074334;28;19931;-79
2023/03/27 09:51:33;;;;;;;;;;;7.50;99.90;;;;;;5133103;27;19924;-79
2023/03/27 09:53:59;;;;;;;;;;;8.30;99.90;;;;;;5063088;28;19932;-79
2023/03/27 09:56:26;;;;;;;;;;;8.80;99.90;;;;;;5110562;28;19923;-80
2023/03/27 09:58:52;;;;;;;;;;;9.10;99.90;;;;;;5098401;28;19924;-79
2023/03/27 10:01:28;;;;;;;;;;;9.60;99.90;;;;;;5111066;28;19939;-80
2023/03/27 10:03:55;;;;;;;;;;;10.00;99.90;;;;;;5090541;28;19928;-80
2023/03/27 10:06:28;;;;;;;;;;;10.30;99.90;;;;;;5087149;28;20006;-80
2023/03/27 10:08:54;;;;;;;;;;;10.40;99.90;;;;;;5080339;28;19999;-79
2023/03/27 10:11:30;;;;;;;;;;;10.30;99.90;;;;;;5095401;28;19927;-80
2023/03/27 10:13:57;;;;;;;;;;;10.40;99.90;;;;;;5099234;28;20453;-80
2023/03/27 10:16:23;;;;;;;;;;;10.40;99.90;;;;;;5102279;28;19924;-80
2023/03/27 10:18:50;;;;;;;;;;;10.20;99.90;;;;;;5059356;27;19924;-79
2023/03/27 10:21:36;;;;;;;;;;;9.60;99.90;;;;;;5108411;28;19924;-79
2023/03/27 10:24:24;;;;;;;;;;;9.50;99.90;;;;;;5082080;28;20330;-80
2023/03/27 10:26:51;;;;;;;;;;;9.20;99.90;;;;;;5075178;28;19939;-80
2023/03/27 10:29:21;;;;;;;;;;;9.20;99.90;;;;;;5084449;28;19987;-79
2023/03/27 10:31:51;;;;;;;;;;;9.20;99.90;;;;;;5084397;28;19963;-79
2023/03/27 10:34:32;;;;;;;;;;;9.40;99.90;;;;;;5101581;28;19953;-79
2023/03/27 10:37:00;;;;;;;;;;;9.30;99.90;;;;;;5101526;28;19924;-79
2023/03/27 10:39:32;;;;;;;;;;;9.00;99.90;;;;;;5082188;28;19924;-80
2023/03/27 10:42:01;;;;;;;;;;;8.80;99.90;;;;;;5087107;28;19924;-79
2023/03/27 10:44:27;;;;;;;;;;;8.50;99.90;;;;;;5094987;28;19963;-79
2023/03/27 10:46:53;;;;;;;;;;;8.20;99.90;;;;;;5084098;28;19931;-80
2023/03/27 10:49:35;;;;;;;;;;;7.80;99.90;;;;;;5108808;28;19927;-79
2023/03/27 10:52:07;;;;;;;;;;;7.60;99.90;;;;;;5091103;28;19932;-79
2023/03/27 10:54:39;;;;;;;;;;;7.40;99.90;;;;;;5094498;28;19931;-79
2023/03/27 10:57:13;;;;;;;;;;;7.60;99.90;;;;;;5129752;28;20028;-79
2023/03/27 10:59:45;;;;;;;;;;;7.80;99.90;;;;;;5093981;28;19923;-78
2023/03/27 11:02:13;;;;;;;;;;;8.10;99.90;;;;;;5080461;28;19930;-79
2023/03/27 11:04:58;;;;;;;;;;;8.30;99.90;;;;;;5082728;28;19945;-79
2023/03/27 11:07:32;;;;;;;;;;;8.60;99.90;;;;;;5096165;28;19931;-78
2023/03/27 11:10:01;;;;;;;;;;;8.60;97.30;;;;;;5082575;28;19965;-80
2023/03/27 11:12:28;;;;;;;;;;;8.50;98.90;;;;;;5083828;28;19928;-78
2023/03/27 11:15:14;;;;;;;;;;;8.50;97.50;;;;;;5086275;28;19923;-80
2023/03/27 11:17:46;;;;;;;;;;;8.60;95.00;;;;;;5101338;28;19931;-80
2023/03/27 11:20:29;;;;;;;;;;;8.60;92.10;;;;;;5098440;28;19927;-80
2023/03/27 11:23:06;;;;;;;;;;;8.40;90.80;;;;;;5099864;28;19931;-79
2023/03/27 11:25:35;;;;;;;;;;;8.30;90.30;;;;;;5077161;28;19923;-79
2023/03/27 11:28:01;;;;;;;;;;;8.40;90.70;;;;;;5080971;28;19931;-79
2023/03/27 11:30:32;;;;;;;;;;;8.60;93.30;;;;;;5097917;28;19954;-78
2023/03/27 11:33:04;;;;;;;;;;;8.80;93.20;;;;;;5083262;27;19938;-78
2023/03/27 11:35:35;;;;;;;;;;;9.10;92.60;;;;;;5076984;28;20534;-79
2023/03/27 11:38:13;;;;;;;;;;;9.30;91.80;;;;;;5122729;27;19924;-79
2023/03/27 11:40:41;;;;;;;;;;;9.50;89.00;;;;;;5092396;28;19924;-79
2023/03/27 11:43:09;;;;;;;;;;;9.50;86.60;;;;;;5114761;27;19971;-79
2023/03/27 11:46:01;;;;;;;;;;;9.70;87.90;;;;;;5108248;28;19924;-78
2023/03/27 11:48:27;;;;;;;;;;;9.90;87.20;;;;;;5121498;27;19930;-79
2023/03/27 11:50:52;;;;;;;;;;;9.70;85.50;;;;;;5085516;28;19924;-79
2023/03/27 11:53:29;;;;;;;;;;;9.30;86.70;;;;;;5086149;28;19924;-79
2023/03/27 11:56:01;;;;;;;;;;;8.90;91.20;;;;;;5086642;28;19924;-79
2023/03/27 11:58:33;;;;;;;;;;;8.80;95.60;;;;;;5086059;28;19923;-79
2023/03/27 12:01:18;;;;;;;;;;;8.80;96.50;;;;;;5085460;28;20382;-79
2023/03/27 12:03:56;;;;;;;;;;;8.80;96.90;;;;;;5123335;27;19923;-78
2023/03/27 12:06:48;;;;;;;;;;;9.00;95.60;;;;;;5092393;27;20373;-78
2023/03/27 12:09:23;;;;;;;;;;;9.10;96.30;;;;;;5055188;28;20001;-79
2023/03/27 12:12:07;;;;;;;;;;;9.30;94.90;;;;;;5099368;27;19928;-79
2023/03/27 12:14:53;;;;;;;;;;;9.40;93.90;;;;;;5066184;27;19924;-78
2023/03/27 12:17:19;;;;;;;;;;;9.30;90.60;;;;;;5057192;27;20000;-78
2023/03/27 12:20:03;;;;;;;;;;;9.30;90.60;;;;;;5071800;28;19932;-79
2023/03/27 12:22:37;;;;;;;;;;;9.40;85.40;;;;;;5126058;27;19946;-78
2023/03/27 12:25:18;;;;;;;;;;;9.60;86.00;;;;;;5081031;28;19931;-79
2023/03/27 12:28:02;;;;;;;;;;;9.80;87.10;;;;;;5075205;28;20008;-79
2023/03/27 12:30:35;;;;;;;;;;;10.00;86.60;;;;;;5099816;28;19928;-79
2023/03/27 12:33:13;;;;;;;;;;;9.90;82.50;;;;;;5109086;28;19960;-79
2023/03/27 12:35:42;;;;;;;;;;;9.50;81.10;;;;;;5070045;28;19928;-79
2023/03/27 12:38:26;;;;;;;;;;;8.90;86.10;;;;;;5076438;27;20342;-78
2023/03/27 12:41:12;;;;;;;;;;;8.50;87.60;;;;;;5125336;27;19949;-78
2023/03/27 12:43:42;;;;;;;;;;;8.00;89.80;;;;;;5124964;27;19928;-78
2023/03/27 12:46:13;;;;;;;;;;;7.80;90.00;;;;;;5088061;27;19924;-78
2023/03/27 12:48:48;;;;;;;;;;;8.00;90.10;;;;;;5076289;27;19928;-77
2023/03/27 12:51:18;;;;;;;;;;;8.20;85.20;;;;;;5081303;27;19931;-78
2023/03/27 12:53:48;;;;;;;;;;;8.30;84.90;;;;;;5072224;27;20037;-79
2023/03/27 12:56:15;;;;;;;;;;;8.30;81.90;;;;;;5106977;27;20166;-77
2023/03/27 12:58:41;;;;;;;;;;;8.50;84.20;;;;;;5078906;28;19951;-78
2023/03/27 13:01:09;;;;;;;;;;;8.50;79.30;;;;;;5080049;28;19969;-78
2023/03/27 13:03:35;;;;;;;;;;;8.60;83.00;;;;;;5090984;27;19924;-79
2023/03/27 13:06:04;;;;;;;;;;;8.60;78.70;;;;;;5107739;27;20386;-78
2023/03/27 13:08:48;;;;;;;;;;;8.90;81.30;;;;;;5092049;28;19928;-78
2023/03/27 13:11:17;;;;;;;;;;;9.20;85.70;;;;;;5094281;27;19923;-78
2023/03/27 13:13:45;;;;;;;;;;;9.50;78.90;;;;;;5094099;28;19927;-79
2023/03/27 13:16:14;;;;;;;;;;;9.60;75.20;;;;;;5078399;28;19934;-79
2023/03/27 13:18:40;;;;;;;;;;;9.60;72.10;;;;;;5073665;28;21541;-79
2023/03/27 13:21:15;;;;;;;;;;;9.30;71.30;;;;;;5078381;28;19957;-78
2023/03/27 13:23:51;;;;;;;;;;;9.10;70.90;;;;;;5077979;28;19981;-78
2023/03/27 13:26:28;;;;;;;;;;;9.00;74.90;;;;;;5112306;27;19958;-79
2023/03/27 13:28:55;;;;;;;;;;;9.00;72.00;;;;;;5077099;27;19959;-79
2023/03/27 13:31:40;;;;;;;;;;;9.00;71.40;;;;;;5066419;28;19924;-78
2023/03/27 13:34:26;;;;;;;;;;;9.00;70.90;;;;;;5118316;28;19953;-79
2023/03/27 13:36:52;;;;;;;;;;;8.80;68.40;;;;;;5106398;28;20008;-79
2023/03/27 13:39:21;;;;;;;;;;;8.70;72.40;;;;;;5095831;27;19932;-80
2023/03/27 13:41:46;;;;;;;;;;;8.70;72.60;;;;;;5081594;27;19924;-78
2023/03/27 13:44:27;;;;;;;;;;;8.90;74.50;;;;;;5076172;28;19942;-79
2023/03/27 13:46:56;;;;;;;;;;;9.20;74.00;;;;;;5077135;28;19930;-80
2023/03/27 13:49:21;;;;;;;;;;;9.50;71.60;;;;;;5079220;27;19929;-79
2023/03/27 13:52:00;;;;;;;;;;;9.60;83.20;;;;;;5089666;28;19974;-78
2023/03/27 13:54:35;;;;;;;;;;;9.30;91.20;;;;;;5093282;28;19950;-79
2023/03/27 13:57:22;;;;;;;;;;;8.60;93.00;;;;;;5112659;27;19935;-79
2023/03/27 13:59:54;;;;;;;;;;;8.00;95.60;;;;;;5078353;28;19954;-79
2023/03/27 14:02:31;;;;;;;;;;;7.30;99.90;;;;;;5073655;28;20286;-81
2023/03/27 14:05:00;;;;;;;;;;;6.90;99.90;;;;;;5075031;28;19923;-82
2023/03/27 14:07:25;;;;;;;;;;;6.80;99.90;;;;;;5111564;28;19944;-81
2023/03/27 14:09:54;;;;;;;;;;;6.90;99.90;;;;;;5086542;28;20028;-82
2023/03/27 14:12:26;;;;;;;;;;;7.10;99.90;;;;;;5108166;28;19969;-82
2023/03/27 14:15:06;;;;;;;;;;;7.20;99.90;;;;;;5072125;27;19975;-81
2023/03/27 14:17:40;;;;;;;;;;;7.30;99.90;;;;;;5070486;28;19928;-82
2023/03/27 14:20:21;;;;;;;;;;;7.30;99.90;;;;;;5078954;28;19927;-80
2023/03/27 14:22:55;;;;;;;;;;;7.30;99.90;;;;;;5075969;28;19928;-80
2023/03/27 14:25:23;;;;;;;;;;;7.50;99.90;;;;;;5078041;28;20016;-81
2023/03/27 14:27:52;;;;;;;;;;;7.90;99.90;;;;;;5073124;28;19928;-80
2023/03/27 14:30:20;;;;;;;;;;;8.30;99.90;;;;;;5075105;28;19928;-80
2023/03/27 14:32:47;;;;;;;;;;;8.60;99.90;;;;;;5077074;28;20004;-80
2023/03/27 14:35:29;;;;;;;;;;;8.80;96.60;;;;;;5091045;28;19924;-81
2023/03/27 14:37:59;;;;;;;;;;;8.80;87.60;;;;;;5119757;27;20390;-80
2023/03/27 14:40:26;;;;;;;;;;;8.40;97.60;;;;;;5126433;27;19984;-83
2023/03/27 14:42:53;;;;;;;;;;;7.80;99.90;;;;;;5078412;27;21115;-81